Time;durP1;ratioP1;P1;durP2;ratioP2;P2;SDS_P1;SDS_P2;PMS_P1;PMS_P2;Temp;Humidity;BMP_temperature;BMP_pressure;BME280_temperature;BME280_humidity;BME280_pressure;Samples;Min_cycle;Max_cycle;Signal;HPM_P1;HPM_P2
2021/05/03 00:00:33;;;;;;;9.03;6.83;;;;;;;15.94;81.55;99357.38;1742292;81;21644;-46
2021/05/03 00:03:01;;;;;;;10.95;8.08;;;;;;;15.93;81.62;99359.73;1725242;81;21593;-45
2021/05/03 00:05:28;;;;;;;7.92;6.85;;;;;;;15.90;81.71;99358.20;1713051;81;21133;-44
2021/05/03 00:07:56;;;;;;;10.20;6.83;;;;;;;15.89;81.79;99356.98;1732303;81;21165;-44
2021/05/03 00:10:25;;;;;;;9.38;6.95;;;;;;;15.88;81.86;99352.12;1734300;81;21168;-44
2021/05/03 00:12:53;;;;;;;10.70;7.60;;;;;;;15.87;81.92;99347.72;1717421;82;21181;-44
2021/05/03 00:15:22;;;;;;;10.48;7.40;;;;;;;15.84;81.98;99342.66;1744591;81;21727;-44
2021/05/03 00:17:51;;;;;;;9.83;7.20;;;;;;;15.85;82.04;99340.80;1747879;81;21191;-43
2021/05/03 00:20:18;;;;;;;17.80;11.75;;;;;;;15.85;82.08;99348.87;1702856;82;21604;-43
2021/05/03 00:22:48;;;;;;;13.80;11.28;;;;;;;15.84;82.11;99345.84;1725686;81;21133;-43
2021/05/03 00:25:16;;;;;;;10.53;8.03;;;;;;;15.80;82.13;99349.34;1736369;81;21173;-42
2021/05/03 00:27:44;;;;;;;9.03;7.60;;;;;;;15.78;82.24;99361.58;1727024;81;21177;-44
2021/05/03 00:30:15;;;;;;;8.28;6.62;;;;;;;15.77;82.32;99353.66;1730887;81;21588;-43
2021/05/03 00:32:44;;;;;;;12.10;7.60;;;;;;;15.77;82.41;99364.41;1724939;81;21642;-44
2021/05/03 00:35:12;;;;;;;10.13;6.47;;;;;;;15.75;82.48;99359.70;1739282;80;21529;-43
2021/05/03 00:37:40;;;;;;;12.95;7.45;;;;;;;15.72;82.54;99361.32;1729339;81;21156;-45
2021/05/03 00:40:08;;;;;;;10.08;8.03;;;;;;;15.70;82.61;99357.45;1725674;81;21173;-44
2021/05/03 00:42:36;;;;;;;12.25;8.10;;;;;;;15.69;82.69;99367.84;1720526;82;21206;-43
2021/05/03 00:45:12;;;;;;;10.20;7.47;;;;;;;15.69;82.73;99366.97;1717999;81;21481;-44
2021/05/03 00:47:40;;;;;;;8.48;7.55;;;;;;;15.68;82.78;99372.84;1728281;81;21196;-45
2021/05/03 00:50:10;;;;;;;11.93;7.12;;;;;;;15.67;82.77;99382.38;1728010;81;21312;-44
2021/05/03 00:52:40;;;;;;;10.58;7.87;;;;;;;15.66;82.76;99386.92;1729928;81;21154;-43
2021/05/03 00:55:09;;;;;;;13.60;8.10;;;;;;;15.64;82.78;99392.09;1730311;81;21153;-42
2021/05/03 00:57:37;;;;;;;10.72;7.58;;;;;;;15.61;82.72;99386.52;1727403;81;21374;-44
2021/05/03 01:00:09;;;;;;;11.15;8.45;;;;;;;15.60;82.72;99390.22;1721299;81;21172;-44
2021/05/03 01:02:38;;;;;;;10.98;8.18;;;;;;;15.58;82.73;99398.91;1718580;81;21493;-43
2021/05/03 01:05:07;;;;;;;8.03;6.78;;;;;;;15.56;82.72;99393.67;1728495;81;21620;-45
2021/05/03 01:07:35;;;;;;;9.00;6.90;;;;;;;15.56;82.67;99400.39;1730604;81;21151;-44
2021/05/03 01:10:04;;;;;;;9.18;7.35;;;;;;;15.56;82.62;99408.95;1726227;81;21193;-46
2021/05/03 01:12:32;;;;;;;8.70;6.95;;;;;;;15.55;82.58;99407.27;1717175;82;21167;-46
2021/05/03 01:15:00;;;;;;;8.98;7.90;;;;;;;15.52;82.57;99403.05;1696621;82;21184;-45
2021/05/03 01:17:32;;;;;;;8.15;7.15;;;;;;;15.52;82.59;99412.92;1729240;81;21185;-45
2021/05/03 01:20:11;;;;;;;9.63;8.15;;;;;;;15.50;82.53;99408.22;1714492;81;21709;-45
2021/05/03 01:22:39;;;;;;;10.63;6.97;;;;;;;15.49;82.46;99406.00;1724777;81;21717;-46
2021/05/03 01:25:08;;;;;;;11.10;7.00;;;;;;;15.49;82.35;99411.88;1722398;81;21152;-46
2021/05/03 01:27:36;;;;;;;8.48;7.22;;;;;;;15.46;82.25;99404.95;1723277;81;21679;-45
2021/05/03 01:30:08;;;;;;;10.72;8.03;;;;;;;15.46;82.18;99408.14;1730967;81;21173;-44
2021/05/03 01:32:36;;;;;;;11.30;7.10;;;;;;;15.45;81.97;99411.84;1730125;81;21157;-44
2021/05/03 01:35:04;;;;;;;10.10;6.42;;;;;;;15.38;81.72;99414.25;1735506;81;21177;-43
2021/05/03 01:37:32;;;;;;;8.60;7.00;;;;;;;15.34;81.57;99404.28;1728795;81;21437;-45
2021/05/03 01:39:59;;;;;;;7.97;6.67;;;;;;;15.32;81.48;99413.00;1735637;81;21124;-44
2021/05/03 01:42:27;;;;;;;11.65;7.28;;;;;;;15.32;81.31;99413.00;1727357;81;21173;-43
2021/05/03 01:44:59;;;;;;;7.12;6.37;;;;;;;15.32;81.14;99421.06;1724142;81;21172;-43
2021/05/03 01:47:27;;;;;;;8.15;5.42;;;;;;;15.31;81.06;99422.03;1729047;81;21173;-43
2021/05/03 01:49:55;;;;;;;7.55;5.95;;;;;;;15.28;80.66;99421.48;1732100;81;21622;-44
2021/05/03 01:52:22;;;;;;;6.15;4.37;;;;;;;15.25;80.15;99428.00;1736276;81;21197;-42
2021/05/03 01:54:51;;;;;;;5.25;4.70;;;;;;;15.19;79.27;99429.06;1683772;81;21153;-42
2021/05/03 01:57:19;;;;;;;5.20;3.72;;;;;;;15.12;78.43;99420.76;1730622;81;21194;-42
2021/05/03 01:59:49;;;;;;;4.75;3.12;;;;;;;15.05;76.95;99422.32;1730232;81;21173;-42
2021/05/03 02:02:16;;;;;;;4.28;2.95;;;;;;;14.96;74.77;99421.83;1738773;81;21149;-43
2021/05/03 02:04:44;;;;;;;3.47;2.60;;;;;;;14.90;73.76;99421.91;1716585;82;21189;-42
2021/05/03 02:07:15;;;;;;;6.83;3.30;;;;;;;14.85;73.14;99423.67;1735041;81;21190;-41
2021/05/03 02:09:44;;;;;;;5.22;3.12;;;;;;;14.79;72.65;99424.73;1740630;81;21214;-42
2021/05/03 02:12:12;;;;;;;4.42;2.92;;;;;;;14.73;72.61;99422.63;1736851;81;21585;-44
2021/05/03 02:14:42;;;;;;;4.70;2.72;;;;;;;14.69;72.71;99423.39;1744561;81;21188;-44
2021/05/03 02:17:10;;;;;;;3.25;2.87;;;;;;;14.66;72.82;99423.67;1715112;82;21155;-43
2021/05/03 02:19:39;;;;;;;5.60;3.20;;;;;;;14.68;73.12;99431.09;1722195;82;21192;-43
2021/05/03 02:22:06;;;;;;;6.05;3.17;;;;;;;14.70;73.27;99432.64;1713033;81;21186;-43
2021/05/03 02:24:34;;;;;;;4.45;3.70;;;;;;;14.70;73.44;99447.91;1712414;81;21307;-42
2021/05/03 02:27:02;;;;;;;5.45;4.05;;;;;;;14.66;73.59;99439.27;1722479;82;21160;-42
2021/05/03 02:29:30;;;;;;;4.67;3.30;;;;;;;14.63;73.52;99454.81;1732975;81;21132;-42
2021/05/03 02:31:58;;;;;;;3.83;3.27;;;;;;;14.60;73.46;99441.69;1740110;80;21130;-44
2021/05/03 02:34:25;;;;;;;3.62;2.95;;;;;;;14.59;73.24;99449.36;1718350;81;21165;-42
2021/05/03 02:36:55;;;;;;;3.87;3.05;;;;;;;14.56;72.85;99456.36;1773438;79;21137;-50
2021/05/03 02:39:22;;;;;;;3.60;2.58;;;;;;;14.49;72.39;99456.06;1770846;79;21161;-44
2021/05/03 02:41:50;;;;;;;3.47;2.55;;;;;;;14.42;71.84;99459.77;1773625;79;21164;-47
2021/05/03 02:44:18;;;;;;;2.92;2.52;;;;;;;14.32;71.25;99460.25;1779895;79;21183;-44
2021/05/03 02:46:45;;;;;;;3.50;2.47;;;;;;;14.28;70.89;99462.84;1764347;79;21688;-45
2021/05/03 02:49:14;;;;;;;3.10;2.30;;;;;;;14.19;70.09;99475.75;1775619;79;21631;-44
2021/05/03 02:51:41;;;;;;;3.45;2.45;;;;;;;14.10;69.57;99485.45;1782944;79;21664;-43
2021/05/03 02:54:10;;;;;;;5.55;2.22;;;;;;;14.05;69.76;99491.20;1785089;79;21719;-44
2021/05/03 02:56:37;;;;;;;3.00;2.45;;;;;;;14.04;69.55;99493.55;1769599;79;21209;-45
2021/05/03 02:59:05;;;;;;;2.95;2.25;;;;;;;14.01;69.60;99497.84;1772376;79;21584;-46
2021/05/03 03:01:33;;;;;;;6.65;2.60;;;;;;;13.95;69.37;99498.37;1779834;79;21601;-44
2021/05/03 03:04:01;;;;;;;2.77;2.25;;;;;;;13.89;69.33;99498.08;1773188;79;21180;-44
2021/05/03 03:06:28;;;;;;;3.85;2.50;;;;;;;13.83;69.25;99505.67;1771635;79;21172;-46
2021/05/03 03:08:56;;;;;;;4.22;3.22;;;;;;;13.75;69.37;99508.14;1765483;79;21433;-44
2021/05/03 03:11:24;;;;;;;3.33;2.33;;;;;;;13.67;69.59;99513.83;1772525;79;21110;-44
2021/05/03 03:13:52;;;;;;;4.60;2.30;;;;;;;13.60;69.74;99517.52;1771932;79;21141;-44
2021/05/03 03:16:22;;;;;;;3.40;2.52;;;;;;;13.53;69.94;99523.03;1780202;79;21160;-44
2021/05/03 03:18:49;;;;;;;2.40;2.05;;;;;;;13.51;70.13;99523.19;1767355;79;21141;-46
2021/05/03 03:21:17;;;;;;;4.25;2.62;;;;;;;13.45;70.18;99522.84;1768622;79;21108;-45
2021/05/03 03:23:45;;;;;;;4.00;2.15;;;;;;;13.36;70.09;99524.50;1769100;79;21631;-45
2021/05/03 03:26:13;;;;;;;3.35;2.05;;;;;;;13.29;69.94;99536.20;1766567;79;21552;-45
2021/05/03 03:28:41;;;;;;;3.52;2.25;;;;;;;13.24;69.73;99542.90;1774743;79;21446;-44
2021/05/03 03:31:08;;;;;;;3.37;2.25;;;;;;;13.17;69.28;99550.59;1784059;78;21121;-43
2021/05/03 03:33:36;;;;;;;2.77;2.00;;;;;;;13.10;69.31;99554.28;1773785;79;21172;-43
2021/05/03 03:36:08;;;;;;;2.17;1.77;;;;;;;13.04;69.24;99561.47;1769709;79;21151;-45
2021/05/03 03:38:35;;;;;;;4.70;1.90;;;;;;;12.95;68.85;99580.48;1766927;79;21156;-44
2021/05/03 03:41:03;;;;;;;5.60;1.90;;;;;;;12.83;67.68;99577.48;1745960;81;22362;-43
2021/05/03 03:43:31;;;;;;;2.90;1.60;;;;;;;12.72;66.63;99581.50;1715410;82;21708;-45
2021/05/03 03:45:58;;;;;;;1.98;1.45;;;;;;;12.59;65.89;99594.18;1724529;81;21732;-45
2021/05/03 03:48:26;;;;;;;2.40;1.50;;;;;;;12.49;65.96;99582.03;1730770;82;21157;-45
2021/05/03 03:50:54;;;;;;;3.25;1.30;;;;;;;12.43;65.65;99601.25;1731243;82;21181;-45
2021/05/03 03:53:21;;;;;;;2.98;1.62;;;;;;;12.32;65.21;99608.31;1727738;81;21617;-44
2021/05/03 03:55:49;;;;;;;3.22;1.37;;;;;;;12.26;65.60;99615.46;1720809;81;21185;-45
2021/05/03 03:58:17;;;;;;;1.77;1.60;;;;;;;12.24;65.50;99625.41;1717662;82;21159;-42
2021/05/03 04:00:44;;;;;;;2.67;1.77;;;;;;;12.23;65.57;99622.88;1718944;82;21177;-44
2021/05/03 04:03:12;;;;;;;7.22;2.77;;;;;;;12.20;65.41;99622.64;1738717;80;21116;-42
2021/05/03 04:27:18;;;;;;;4.20;1.60;;;;;;;11.40;63.24;99687.95;1768207;79;21553;-41
2021/05/03 04:29:46;;;;;;;1.90;1.20;;;;;;;11.32;63.78;99687.19;1769517;79;21747;-44
2021/05/03 04:32:14;;;;;;;2.10;1.37;;;;;;;11.38;64.31;99685.38;1769752;80;21201;-43
2021/05/03 04:34:42;;;;;;;2.22;1.45;;;;;;;11.45;64.37;99689.30;1737619;81;21145;-42
2021/05/03 04:37:10;;;;;;;2.05;1.40;;;;;;;11.51;64.40;99692.48;1699359;83;21222;-43
2021/05/03 04:39:38;;;;;;;3.58;1.45;;;;;;;11.54;64.50;99703.80;1703485;82;21161;-46
2021/05/03 04:42:06;;;;;;;2.12;1.30;;;;;;;11.59;64.25;99694.09;1733552;81;21133;-45
2021/05/03 04:44:34;;;;;;;2.33;1.40;;;;;;;11.58;63.55;99695.91;1709111;83;21189;-48
2021/05/03 04:47:02;;;;;;;2.08;1.45;;;;;;;11.54;63.54;99700.25;1694761;83;21174;-44
2021/05/03 04:49:29;;;;;;;2.90;1.77;;;;;;;11.50;63.43;99694.30;1709325;82;21178;-44
2021/05/03 04:51:57;;;;;;;3.22;1.50;;;;;;;11.50;63.64;99697.47;1746698;81;21161;-43
2021/05/03 04:54:25;;;;;;;1.95;1.35;;;;;;;11.50;62.88;99685.45;1741660;81;21589;-45
2021/05/03 04:56:52;;;;;;;3.30;1.60;;;;;;;11.47;62.88;99680.70;1742470;81;21177;-44
2021/05/03 04:59:20;;;;;;;2.87;1.75;;;;;;;11.45;62.81;99681.30;1729071;81;21176;-44
2021/05/03 05:01:48;;;;;;;2.67;1.50;;;;;;;11.44;62.89;99690.28;1677049;83;21136;-45
2021/05/03 05:04:16;;;;;;;1.90;1.35;;;;;;;11.44;63.10;99682.27;1682288;83;21162;-46
2021/05/03 05:06:44;;;;;;;1.70;1.12;;;;;;;11.45;62.81;99695.98;1722794;82;21164;-45
2021/05/03 05:09:11;;;;;;;1.17;1.00;;;;;;;11.45;62.90;99709.33;1717960;81;21716;-46
2021/05/03 05:11:39;;;;;;;2.20;1.32;;;;;;;11.45;62.87;99701.31;1721139;81;21165;-45
2021/05/03 05:14:07;;;;;;;5.10;1.40;;;;;;;11.49;63.15;99708.63;1707824;81;21176;-43
2021/05/03 05:16:35;;;;;;;2.52;1.00;;;;;;;11.53;62.64;99710.58;1678033;83;21481;-51
2021/05/03 05:19:03;;;;;;;2.08;1.25;;;;;;;11.51;62.08;99694.66;1689865;83;21210;-47
2021/05/03 05:21:32;;;;;;;1.50;1.12;;;;;;;11.49;62.84;99693.95;1698994;83;21572;-46
2021/05/03 05:23:59;;;;;;;1.87;0.95;;;;;;;11.55;63.33;99695.30;1710436;83;21134;-47
2021/05/03 05:26:27;;;;;;;1.65;1.17;;;;;;;11.59;62.99;99686.95;1694590;82;21481;-48
2021/05/03 05:28:54;;;;;;;2.67;1.22;;;;;;;11.65;62.68;99676.28;1695355;82;21180;-46
2021/05/03 05:31:22;;;;;;;1.55;0.90;;;;;;;11.66;62.16;99674.81;1690213;83;21182;-47
2021/05/03 05:33:50;;;;;;;1.95;1.10;;;;;;;11.66;61.74;99670.80;1685882;83;21207;-46
2021/05/03 05:36:18;;;;;;;3.35;1.30;;;;;;;11.68;61.82;99681.39;1681125;84;21191;-46
2021/05/03 05:38:46;;;;;;;1.37;0.60;;;;;;;11.67;61.70;99677.03;1692281;83;21525;-44
2021/05/03 05:41:14;;;;;;;1.50;0.95;;;;;;;11.70;62.09;99676.78;1694959;82;21180;-44
2021/05/03 05:43:42;;;;;;;1.52;0.80;;;;;;;11.74;61.74;99688.08;1691715;82;21176;-44
2021/05/03 05:46:10;;;;;;;1.37;0.90;;;;;;;11.77;61.73;99687.84;1686950;83;21191;-43
2021/05/03 05:48:38;;;;;;;1.25;0.80;;;;;;;11.83;61.56;99684.23;1698185;83;21172;-44
2021/05/03 05:51:06;;;;;;;2.35;0.72;;;;;;;11.87;60.86;99681.73;1700647;83;21233;-41
2021/05/03 05:53:34;;;;;;;1.92;0.90;;;;;;;11.88;60.36;99678.08;1693957;82;21195;-43
2021/05/03 05:56:02;;;;;;;2.15;0.70;;;;;;;11.88;60.42;99693.27;1708840;83;21181;-44
2021/05/03 05:58:32;;;;;;;1.87;0.60;;;;;;;11.92;60.15;99690.73;1687341;83;21176;-43
2021/05/03 06:01:01;;;;;;;0.62;0.50;;;;;;;11.93;59.33;99692.92;1706044;82;21227;-44
2021/05/03 06:03:29;;;;;;;2.27;0.50;;;;;;;11.94;59.34;99687.93;1710696;82;21186;-43
2021/05/03 06:05:57;;;;;;;1.22;0.50;;;;;;;11.94;58.93;99689.27;1728807;82;21213;-44
2021/05/03 06:08:26;;;;;;;2.02;0.82;;;;;;;11.94;58.77;99699.45;1723204;81;21169;-42
2021/05/03 06:10:53;;;;;;;1.17;0.60;;;;;;;11.94;58.56;99694.61;1692888;83;21198;-43
2021/05/03 06:13:21;;;;;;;1.30;0.70;;;;;;;11.96;58.58;99709.55;1679125;83;21233;-45
2021/05/03 06:15:51;;;;;;;1.45;0.60;;;;;;;11.99;58.12;99716.48;1684784;83;21169;-44
2021/05/03 06:18:18;;;;;;;1.45;0.90;;;;;;;12.01;58.07;99718.55;1674734;83;21148;-43
2021/05/03 06:20:46;;;;;;;1.80;0.82;;;;;;;12.02;58.04;99720.25;1675908;84;21166;-43
2021/05/03 06:23:14;;;;;;;0.78;0.40;;;;;;;12.01;57.48;99724.75;1683549;83;21677;-46
2021/05/03 06:25:43;;;;;;;1.55;0.70;;;;;;;12.00;57.62;99728.89;1686367;84;21167;-45
2021/05/03 06:28:11;;;;;;;0.72;0.53;;;;;;;12.02;58.65;99726.47;1694984;82;21221;-47
2021/05/03 06:30:39;;;;;;;1.22;0.65;;;;;;;12.12;58.53;99739.49;1685052;82;21189;-46
2021/05/03 06:33:07;;;;;;;1.25;0.80;;;;;;;12.21;58.05;99741.09;1685120;83;21194;-53
2021/05/03 06:35:34;;;;;;;2.25;0.75;;;;;;;12.28;57.99;99733.81;1689019;82;21645;-52
2021/05/03 06:38:05;;;;;;;1.07;0.62;;;;;;;12.35;58.06;99734.20;1697005;83;21193;-44
2021/05/03 06:40:32;;;;;;;1.27;0.80;;;;;;;12.41;57.60;99729.70;1685761;82;21196;-45
2021/05/03 06:43:01;;;;;;;0.70;0.45;;;;;;;12.43;56.97;99742.47;1700057;82;21597;-45
2021/05/03 06:45:33;;;;;;;2.37;0.70;;;;;;;12.45;57.40;99741.87;1695489;82;21398;-44
2021/05/03 06:48:02;;;;;;;0.80;0.50;;;;;;;12.48;57.62;99741.63;1694473;82;21169;-45
2021/05/03 06:50:31;;;;;;;0.82;0.55;;;;;;;12.54;56.51;99727.77;1691874;83;21165;-45
2021/05/03 06:52:59;;;;;;;1.85;1.20;;;;;;;12.57;55.66;99744.05;1684226;82;21176;-47
2021/05/03 06:55:27;;;;;;;0.68;0.40;;;;;;;12.51;55.77;99749.89;1715912;82;21146;-50
2021/05/03 06:57:55;;;;;;;2.62;0.98;;;;;;;12.45;56.76;99753.05;1706921;82;21189;-49
2021/05/03 07:00:25;;;;;;;1.25;0.55;;;;;;;12.40;56.88;99769.45;1691423;83;21171;-44
2021/05/03 07:02:53;;;;;;;1.82;0.50;;;;;;;12.38;57.30;99767.38;1698568;83;21479;-47
2021/05/03 07:05:21;;;;;;;1.22;0.90;;;;;;;12.39;57.60;99761.53;1693530;83;21169;-47
2021/05/03 07:07:51;;;;;;;0.50;0.40;;;;;;;12.46;57.35;99768.96;1693887;82;21201;-45
2021/05/03 07:10:20;;;;;;;2.15;0.85;;;;;;;12.50;57.43;99776.28;1693365;83;21620;-45
2021/05/03 07:12:51;;;;;;;0.98;0.57;;;;;;;12.53;56.89;99780.89;1693763;83;21147;-45
2021/05/03 07:15:20;;;;;;;1.35;0.60;;;;;;;12.56;57.20;99778.46;1658056;84;21161;-46
2021/05/03 07:17:48;;;;;;;1.32;0.72;;;;;;;12.56;56.97;99772.63;1698318;83;21176;-44
2021/05/03 07:20:16;;;;;;;5.15;0.60;;;;;;;12.55;57.53;99785.64;1683835;83;21165;-45
2021/05/03 07:22:44;;;;;;;1.40;0.47;;;;;;;12.44;56.69;99788.27;1690631;83;21173;-46
2021/05/03 07:25:12;;;;;;;0.85;0.50;;;;;;;12.33;56.71;99790.45;1692224;83;21149;-46
2021/05/03 07:27:40;;;;;;;1.72;0.80;;;;;;;12.27;57.08;99802.08;1685342;83;21674;-44
2021/05/03 07:30:11;;;;;;;0.90;0.40;;;;;;;12.23;57.45;99809.49;1687935;83;21169;-45
2021/05/03 07:32:39;;;;;;;0.93;0.50;;;;;;;12.18;57.42;99814.34;1686227;83;21208;-44
2021/05/03 07:35:10;;;;;;;1.20;0.70;;;;;;;12.14;57.94;99816.86;1695422;83;21196;-43
2021/05/03 07:37:40;;;;;;;2.05;0.60;;;;;;;12.12;57.85;99816.15;1689462;83;21600;-45
2021/05/03 07:40:09;;;;;;;1.15;0.57;;;;;;;12.09;57.14;99815.87;1689347;83;21185;-45
2021/05/03 07:42:37;;;;;;;3.08;0.80;;;;;;;12.06;57.75;99822.78;1688382;83;21156;-44
2021/05/03 07:45:08;;;;;;;1.20;0.75;;;;;;;12.03;57.78;99823.02;1688774;82;21609;-43
2021/05/03 07:47:35;;;;;;;1.45;0.88;;;;;;;12.01;57.63;99823.61;1675626;83;21187;-46
2021/05/03 07:50:05;;;;;;;1.02;0.62;;;;;;;12.01;58.02;99825.44;1702343;83;21185;-45
2021/05/03 07:52:34;;;;;;;1.57;0.60;;;;;;;12.03;58.50;99826.19;1695077;83;21154;-46
2021/05/03 07:55:06;;;;;;;1.42;0.80;;;;;;;12.12;58.64;99828.17;1687278;83;21856;-47
2021/05/03 07:57:34;;;;;;;1.07;0.68;;;;;;;12.15;58.03;99829.27;1706131;83;21172;-49
2021/05/03 08:00:01;;;;;;;2.52;0.53;;;;;;;12.15;57.68;99828.43;1683699;83;21208;-47
2021/05/03 08:02:31;;;;;;;1.80;1.00;;;;;;;12.17;58.10;99840.70;1668617;84;21346;-49
2021/05/03 08:05:00;;;;;;;1.70;0.72;;;;;;;12.23;58.25;99848.25;1688584;83;21156;-47
2021/05/03 08:07:28;;;;;;;1.35;0.95;;;;;;;12.25;58.01;99842.80;1689956;84;21601;-47
2021/05/03 08:09:55;;;;;;;2.85;0.80;;;;;;;12.24;57.77;99842.41;1713634;83;21926;-48
2021/05/03 08:12:27;;;;;;;1.87;0.47;;;;;;;12.25;58.27;99844.98;1718470;83;21418;-46
2021/05/03 08:15:12;;;;;;;3.70;0.88;;;;;;;12.26;57.19;99841.33;1710118;82;21160;-44
2021/05/03 08:17:43;;;;;;;3.80;0.90;;;;;;;12.26;56.67;99842.67;1724479;82;21150;-46
2021/05/03 08:20:14;;;;;;;2.50;0.72;;;;;;;12.27;56.34;99847.06;1687051;83;21195;-46
2021/05/03 08:22:46;;;;;;;1.27;0.70;;;;;;;12.31;56.61;99849.86;1686575;83;21208;-44
2021/05/03 08:25:31;;;;;;;1.80;0.75;;;;;;;12.36;56.39;99849.52;1689435;83;21609;-43
2021/05/03 08:28:22;;;;;;;1.10;0.70;;;;;;;12.38;55.77;99840.90;1693838;83;21348;-45
2021/05/03 08:30:58;;;;;;;;;;;;;;;12.26;55.58;99847.17;1686359;82;21164;-46
2021/05/03 08:33:29;;;;;;;3.20;1.40;;;;;;;12.16;56.12;99854.17;1686653;83;20267;-44
2021/05/03 08:35:57;;;;;;;1.80;0.88;;;;;;;12.08;56.84;99866.28;1700915;83;21641;-46
2021/05/03 08:38:24;;;;;;;1.62;0.72;;;;;;;12.08;56.20;99864.95;1691200;82;21165;-45
2021/05/03 08:40:53;;;;;;;1.07;0.85;;;;;;;12.09;55.65;99865.30;1694806;82;21172;-44
2021/05/03 08:43:22;;;;;;;2.75;1.05;;;;;;;12.11;55.37;99861.19;1693669;83;21188;-49
2021/05/03 08:45:49;;;;;;;1.30;0.80;;;;;;;12.07;54.89;99858.37;1694870;83;21637;-48
2021/05/03 08:48:24;;;;;;;1.05;0.80;;;;;;;12.04;55.05;99860.78;1683297;83;21184;-48
2021/05/03 08:53:40;;;;;;;2.12;1.05;;;;;;;12.09;55.85;99861.30;1688782;83;21152;-48
2021/05/03 08:56:07;;;;;;;4.53;1.07;;;;;;;12.12;54.99;99849.56;1728003;82;21160;-47
2021/05/03 08:58:39;;;;;;;2.15;0.95;;;;;;;12.13;55.16;99855.26;1719877;82;21173;-50
2021/05/03 09:01:06;;;;;;;2.05;1.00;;;;;;;12.18;55.83;99851.75;1721253;82;21173;-54
2021/05/03 09:03:35;;;;;;;1.50;0.90;;;;;;;12.28;55.84;99862.13;1707324;82;21184;-49
2021/05/03 09:06:04;;;;;;;1.65;0.95;;;;;;;12.40;55.79;99876.39;1705041;83;21178;-47
2021/05/03 09:08:32;;;;;;;2.80;1.10;;;;;;;12.50;55.35;99865.38;1697666;83;21158;-46
2021/05/03 09:11:00;;;;;;;1.50;0.80;;;;;;;12.58;54.67;99859.92;1715069;83;21217;-47
2021/05/03 09:13:34;;;;;;;1.27;0.90;;;;;;;12.57;54.50;99869.74;1721568;81;21177;-48
2021/05/03 09:16:22;;;;;;;2.92;1.22;;;;;;;12.51;54.54;99856.86;1725113;81;21338;-48
2021/05/03 09:18:51;;;;;;;1.60;1.20;;;;;;;12.46;54.67;99847.84;1723650;81;21150;-47
2021/05/03 09:21:28;;;;;;;1.02;0.90;;;;;;;12.44;55.00;99847.09;1681975;83;21197;-44
2021/05/03 09:24:08;;;;;;;2.65;0.90;;;;;;;12.45;54.99;99847.98;1685075;83;21154;-43
2021/05/03 09:26:49;;;;;;;1.52;1.30;;;;;;;12.40;54.75;99845.65;1676336;84;21195;-45
2021/05/03 09:29:34;;;;;;;3.03;1.13;;;;;;;12.44;54.73;99850.27;1677310;83;21416;-48
2021/05/03 09:32:11;;;;;;;0.72;0.72;;;;;;;12.48;53.42;99848.58;1713207;82;21454;-46
2021/05/03 09:34:48;;;;;;;2.87;1.20;;;;;;;12.52;54.36;99848.73;1713551;82;21176;-46
2021/05/03 09:40:15;;;;;;;1.60;1.22;;;;;;;12.58;51.87;99853.23;1797003;78;23560;-46
2021/05/03 09:43:00;;;;;;;2.67;1.00;;;;;;;12.51;52.94;99857.70;1764785;79;21132;-46
2021/05/03 09:45:30;;;;;;;1.30;1.20;;;;;;;12.53;52.84;99861.12;1776361;79;21632;-45
2021/05/03 09:47:59;;;;;;;2.83;1.05;;;;;;;12.56;52.27;99876.92;1741304;81;21149;-46
2021/05/03 09:50:31;;;;;;;1.92;1.22;;;;;;;12.55;52.17;99875.72;1723827;81;21179;-48
2021/05/03 09:53:10;;;;;;;3.35;1.95;;;;;;;12.54;52.48;99898.91;1721999;81;21165;-46
2021/05/03 09:55:49;;;;;;;2.05;1.85;;;;;;;12.54;52.39;99902.08;1707309;83;21165;-45
2021/05/03 09:58:24;;;;;;;1.85;1.30;;;;;;;12.54;52.42;99918.13;1714468;81;21610;-45
2021/05/03 10:00:54;;;;;;;2.45;1.82;;;;;;;12.50;52.44;99904.64;1735306;81;21142;-44
2021/05/03 10:03:44;;;;;;;2.20;1.47;;;;;;;12.45;52.82;99917.01;1727104;82;21149;-44
2021/05/03 10:06:12;;;;;;;5.00;1.50;;;;;;;12.47;53.44;99910.19;1713939;82;21105;-47
2021/05/03 10:08:42;;;;;;;4.35;1.52;;;;;;;12.49;52.48;99913.11;1744431;81;21137;-47
2021/05/03 10:11:13;;;;;;;1.40;1.20;;;;;;;12.50;52.90;99913.50;1726986;82;21150;-49
2021/05/03 10:13:40;;;;;;;1.70;1.42;;;;;;;12.55;52.80;99911.83;1729873;82;21594;-50
2021/05/03 10:16:09;;;;;;;1.22;0.98;;;;;;;12.61;52.42;99904.66;1730826;81;21164;-45
2021/05/03 10:18:40;;;;;;;2.52;1.30;;;;;;;12.62;52.21;99918.88;1726099;82;21605;-44
2021/05/03 10:21:13;;;;;;;2.95;1.12;;;;;;;12.58;52.13;99908.06;1733620;82;21156;-45
2021/05/03 10:23:44;;;;;;;1.87;1.07;;;;;;;12.53;51.86;99903.06;1734343;81;21146;-45
2021/05/03 10:26:13;;;;;;;1.77;1.00;;;;;;;12.55;52.31;99903.80;1721816;83;21161;-46
2021/05/03 10:28:54;;;;;;;0.88;0.80;;;;;;;12.58;51.65;99912.92;1712318;83;21149;-46
2021/05/03 10:31:24;;;;;;;1.80;1.07;;;;;;;12.64;52.22;99914.27;1725276;83;21141;-45
2021/05/03 10:33:52;;;;;;;3.70;1.00;;;;;;;12.74;50.93;99905.42;1721754;83;21153;-48
2021/05/03 10:36:35;;;;;;;2.02;0.80;;;;;;;12.78;51.29;99902.05;1716356;83;21177;-48
2021/05/03 10:39:33;;;;;;;1.25;0.90;;;;;;;12.82;50.70;99906.66;1712889;83;21606;-51
2021/05/03 10:42:07;;;;;;;1.75;0.80;;;;;;;12.84;51.28;99898.03;1692769;83;21150;-46
2021/05/03 10:44:38;;;;;;;4.55;1.25;;;;;;;12.94;50.55;99924.45;1697664;83;21158;-46
2021/05/03 10:47:34;;;;;;;6.20;1.10;;;;;;;12.99;50.42;99907.06;1691700;84;21423;-47
2021/05/03 10:49:59;;;;;;;1.57;1.20;;;;;;;13.07;50.84;99917.66;1692229;83;21259;-47
2021/05/03 10:52:34;;;;;;;2.45;1.27;;;;;;;13.15;50.43;99925.94;1700181;84;21574;-48
2021/05/03 10:55:03;;;;;;;1.92;1.02;;;;;;;13.21;50.85;99940.20;1761269;80;21130;-53
2021/05/03 10:57:34;;;;;;;2.80;1.20;;;;;;;13.28;49.63;99942.81;1774010;80;21110;-47
2021/05/03 11:00:05;;;;;;;2.70;1.20;;;;;;;13.28;49.74;99939.25;1771530;80;21100;-49
2021/05/03 11:02:43;;;;;;;1.90;1.17;;;;;;;13.30;50.79;99944.01;1771135;80;21599;-46
2021/05/03 11:05:27;;;;;;;1.98;1.25;;;;;;;13.37;51.05;99958.62;1761548;80;21158;-43
2021/05/03 11:08:09;;;;;;;1.20;0.80;;;;;;;13.42;49.49;99952.42;1764421;80;21138;-44
2021/05/03 11:11:09;;;;;;;1.82;1.15;;;;;;;13.45;50.29;99958.02;1769558;80;21657;-45
2021/05/03 11:13:41;;;;;;;2.60;0.98;;;;;;;13.51;49.58;99965.10;1771615;80;21276;-44
2021/05/03 11:16:33;;;;;;;1.75;1.15;;;;;;;13.51;49.08;99949.03;1751559;81;21142;-44
2021/05/03 11:19:02;;;;;;;1.35;0.85;;;;;;;13.54;49.22;99940.74;1770581;80;21182;-46
2021/05/03 11:21:41;;;;;;;2.02;1.32;;;;;;;13.61;48.92;99934.42;1745554;80;21152;-47
2021/05/03 11:24:31;;;;;;;1.95;1.50;;;;;;;13.64;48.40;99920.78;1772491;80;21143;-44
2021/05/03 11:27:02;;;;;;;2.67;1.20;;;;;;;13.66;48.02;99925.99;1768978;80;21126;-45
2021/05/03 11:29:36;;;;;;;3.08;1.02;;;;;;;13.69;47.57;99917.73;1772308;80;21499;-45
2021/05/03 11:32:00;;;;;;;1.72;1.12;;;;;;;13.72;48.34;99933.56;1728664;81;21147;-47
2021/05/03 11:37:26;;;;;;;1.20;0.90;;;;;;;13.79;47.22;99913.34;1804439;77;22971;-47
2021/05/03 11:44:58;;;;;;;2.20;1.70;;;;;;;13.98;48.09;99916.20;1777213;77;27986;-44
2021/05/03 11:47:32;;;;;;;8.18;1.85;;;;;;;14.05;47.54;99915.23;1760855;79;21577;-47
2021/05/03 11:50:00;;;;;;;2.80;1.00;;;;;;;14.13;47.83;99910.58;1733437;80;21142;-48
2021/05/03 11:52:32;;;;;;;2.35;1.40;;;;;;;14.16;47.94;99915.68;1710431;82;21153;-49
2021/05/03 11:55:09;;;;;;;2.20;1.20;;;;;;;14.14;47.53;99910.46;1690754;83;21173;-53
2021/05/03 11:57:40;;;;;;;2.00;0.95;;;;;;;14.12;46.54;99919.11;1699071;83;21145;-46
2021/05/03 12:00:08;;;;;;;3.83;1.40;;;;;;;14.06;45.52;99916.45;1708027;82;21137;-47
2021/05/03 12:02:36;;;;;;;3.80;1.10;;;;;;;14.05;45.93;99916.57;1700220;83;21160;-51
2021/05/03 12:05:18;;;;;;;1.85;1.35;;;;;;;14.13;45.86;99911.92;1715947;83;21198;-44
2021/05/03 12:07:47;;;;;;;2.00;1.25;;;;;;;14.16;44.64;99915.22;1692155;83;21117;-45
2021/05/03 12:10:20;;;;;;;1.87;1.05;;;;;;;14.18;44.76;99913.73;1720349;82;21159;-43
2021/05/03 12:12:56;;;;;;;4.47;1.25;;;;;;;14.17;45.02;99908.02;1690768;83;21542;-46
2021/05/03 12:15:28;;;;;;;11.10;1.40;;;;;;;14.16;45.02;99900.94;1699935;82;21136;-47
2021/05/03 12:18:00;;;;;;;9.70;1.67;;;;;;;14.16;44.13;99925.06;1719717;82;21148;-47
2021/05/03 12:20:30;;;;;;;2.85;1.30;;;;;;;14.12;44.19;99915.09;1688246;83;21138;-45